createdAt,value
2023-04-02T00:03:22.576Z,65.51
2023-04-02T00:08:31.475Z,65.76
2023-04-02T00:13:37.113Z,65.76
2023-04-02T00:18:44.543Z,65.68
2023-04-02T00:23:48.076Z,65.74
2023-04-02T00:28:52.246Z,65.57
2023-04-02T00:33:57.291Z,65.36
2023-04-02T00:39:01.903Z,65.80
2023-04-02T00:44:06.136Z,65.09
2023-04-02T00:49:18.406Z,64.74
2023-04-02T00:54:23.593Z,65.04
2023-04-02T00:59:29.667Z,65.22
2023-04-02T01:04:36.796Z,64.54
2023-04-02T01:09:52.768Z,65.24
2023-04-02T01:15:02.508Z,64.23
2023-04-02T01:20:26.114Z,64.44
2023-04-02T01:25:36.292Z,65.05
2023-04-02T01:30:41.759Z,64.40
2023-04-02T01:35:47.809Z,64.29
2023-04-02T01:40:56.161Z,64.96
2023-04-02T01:46:01.393Z,65.25
2023-04-02T01:51:09.392Z,65.39
2023-04-02T01:56:12.959Z,65.35
2023-04-02T02:01:19.244Z,64.49
2023-04-02T02:06:22.871Z,64.69
2023-04-02T02:11:28.820Z,64.42
2023-04-02T02:16:41.810Z,63.65
2023-04-02T02:21:47.449Z,64.86
2023-04-02T02:26:54.953Z,64.98
2023-04-02T02:32:01.113Z,63.99
2023-04-02T02:37:08.067Z,63.64
2023-04-02T02:42:14.819Z,64.09
2023-04-02T02:47:21.550Z,64.03
2023-04-02T02:52:27.891Z,64.43
2023-04-02T02:57:33.940Z,63.55
2023-04-02T03:02:40.707Z,63.06
2023-04-02T03:07:44.269Z,63.56
2023-04-02T03:12:53.239Z,63.90
2023-04-02T03:18:00.718Z,63.49
2023-04-02T03:23:09.283Z,63.67
2023-04-02T03:28:16.202Z,62.91
2023-04-02T03:33:23.170Z,62.88
2023-04-02T03:38:29.133Z,63.37
2023-04-02T03:43:36.386Z,63.07
2023-04-02T03:48:43.590Z,63.01
2023-04-02T03:53:48.117Z,63.18
2023-04-02T03:58:56.829Z,63.30
2023-04-02T04:04:07.626Z,62.43
2023-04-02T04:09:12.882Z,62.11
2023-04-02T04:14:19.521Z,62.33
2023-04-02T04:19:30.266Z,61.84
2023-04-02T04:24:39.471Z,62.49
2023-04-02T04:29:48.508Z,62.43
2023-04-02T04:34:56.885Z,62.61
2023-04-02T04:40:04.376Z,62.61
2023-04-02T04:45:14.425Z,61.57
2023-04-02T04:50:27.543Z,61.39
2023-04-02T04:55:37.846Z,61.83
2023-04-02T05:00:45.358Z,61.56
2023-04-02T05:05:50.823Z,62.75
2023-04-02T05:10:58.610Z,60.81
2023-04-02T05:16:08.789Z,60.06
2023-04-02T05:21:18.673Z,60.23
2023-04-02T05:26:25.405Z,61.03
2023-04-02T05:31:33.141Z,59.79
2023-04-02T05:36:38.395Z,59.76
2023-04-02T05:41:43.569Z,60.02
2023-04-02T05:46:51.381Z,58.55
2023-04-02T05:51:59.380Z,60.18
2023-04-02T05:57:05.204Z,59.75
2023-04-02T06:02:14.278Z,58.07
2023-04-02T06:07:21.497Z,59.27
2023-04-02T06:12:29.362Z,58.81
2023-04-02T06:17:36.089Z,58.83
2023-04-02T06:22:42.013Z,58.45
2023-04-02T06:27:47.818Z,59.86
2023-04-02T06:32:51.347Z,57.20
2023-04-02T06:37:57.653Z,59.17
2023-04-02T06:43:02.265Z,58.45
2023-04-02T06:48:06.126Z,57.42
2023-04-02T06:53:21.762Z,55.82
2023-04-02T06:58:25.195Z,57.22
2023-04-02T07:03:30.084Z,56.70
2023-04-02T07:08:34.943Z,57.78
2023-04-02T07:13:38.373Z,58.23
2023-04-02T07:18:41.868Z,58.97
2023-04-02T07:23:46.749Z,56.77
2023-04-02T07:28:50.528Z,56.73
2023-04-02T07:33:55.746Z,57.45
2023-04-02T07:39:01.108Z,57.16
2023-04-02T07:44:05.775Z,57.69
2023-04-02T07:49:09.264Z,57.27
2023-04-02T07:54:14.126Z,57.01
2023-04-02T07:59:17.588Z,56.45
2023-04-02T08:04:23.025Z,57.87
2023-04-02T08:09:28.118Z,57.50
2023-04-02T08:14:31.735Z,57.67
2023-04-02T08:19:44.420Z,57.15
2023-04-02T08:24:57.575Z,57.87
2023-04-02T08:30:01.048Z,57.29
2023-04-02T08:35:04.835Z,58.03
2023-04-02T08:40:20.309Z,57.70
2023-04-02T08:45:30.161Z,59.05
2023-04-02T08:50:35.777Z,58.25
2023-04-02T08:55:48.075Z,57.80
2023-04-02T09:00:54.665Z,57.81
2023-04-02T09:05:59.193Z,58.97
2023-04-02T09:11:08.637Z,59.39
2023-04-02T09:16:13.585Z,57.96
2023-04-02T09:21:32.081Z,56.92
2023-04-02T09:26:37.105Z,58.07
2023-04-02T09:31:42.763Z,58.25
2023-04-02T09:36:46.379Z,57.27
2023-04-02T09:42:04.579Z,58.26
2023-04-02T09:47:25.376Z,59.00
2023-04-02T09:52:30.030Z,57.75
2023-04-02T09:57:34.990Z,58.91
2023-04-02T10:02:38.613Z,57.80
2023-04-02T10:07:44.230Z,57.68
2023-04-02T10:12:54.212Z,58.58
2023-04-02T10:18:03.929Z,57.86
2023-04-02T10:23:07.419Z,58.39
2023-04-02T10:28:17.534Z,58.39
2023-04-02T10:33:25.278Z,58.21
2023-04-02T10:38:39.832Z,58.15
2023-04-02T10:44:20.189Z,58.73
2023-04-02T10:49:29.528Z,57.64
2023-04-02T10:54:43.196Z,58.66
2023-04-02T10:59:52.696Z,58.17
2023-04-02T11:04:57.316Z,58.30
2023-04-02T11:10:01.887Z,57.97
2023-04-02T11:15:16.366Z,58.35
2023-04-02T11:21:05.605Z,57.56
2023-04-02T11:26:31.302Z,59.19
2023-04-02T11:31:37.547Z,59.00
2023-04-02T11:37:03.572Z,58.97
2023-04-02T11:42:24.993Z,58.28
2023-04-02T11:47:31.311Z,57.47
2023-04-02T11:52:38.193Z,57.92
2023-04-02T11:57:51.211Z,58.43
2023-04-02T12:03:07.121Z,57.31
2023-04-02T12:08:19.351Z,58.66
2023-04-02T12:13:43.590Z,57.14
2023-04-02T12:18:51.463Z,57.80
2023-04-02T12:23:56.981Z,58.08
2023-04-02T12:29:22.714Z,58.16
2023-04-02T12:34:29.412Z,57.17
2023-04-02T12:39:34.236Z,57.63
2023-04-02T12:44:37.681Z,59.17
2023-04-02T12:49:43.654Z,59.38
2023-04-02T12:54:48.901Z,59.36
2023-04-02T12:59:52.834Z,59.15
2023-04-02T13:05:01.059Z,59.80
2023-04-02T13:10:05.994Z,58.85
2023-04-02T13:15:19.270Z,58.14
2023-04-02T13:20:32.624Z,59.49
2023-04-02T13:25:37.760Z,59.86
2023-04-02T13:30:41.384Z,60.10
2023-04-02T13:35:46.510Z,59.09
2023-04-02T13:40:50.102Z,59.68
2023-04-02T13:45:54.781Z,60.60
2023-04-02T13:50:59.726Z,60.77
2023-04-02T13:56:03.260Z,60.08
2023-04-02T14:01:07.115Z,60.79
2023-04-02T14:06:16.464Z,61.38
2023-04-02T14:11:30.563Z,60.84
2023-04-02T14:16:52.270Z,59.69
2023-04-02T14:22:05.077Z,60.68
2023-04-02T14:27:18.703Z,61.16
2023-04-02T14:32:25.690Z,60.38
2023-04-02T14:37:35.394Z,60.08
2023-04-02T14:42:42.764Z,60.33
2023-04-02T14:47:50.092Z,60.52
2023-04-02T14:52:57.981Z,59.82
2023-04-02T14:58:01.757Z,59.69
2023-04-02T15:03:08.221Z,60.80
2023-04-02T15:08:21.048Z,61.47
2023-04-02T15:13:27.363Z,58.39
2023-04-02T15:18:30.908Z,59.81
2023-04-02T15:23:44.102Z,61.05
2023-04-02T15:28:51.854Z,59.23
2023-04-02T15:33:58.835Z,60.43
2023-04-02T15:39:13.023Z,44.78
2023-04-02T15:44:17.832Z,57.32
2023-04-02T15:49:34.536Z,60.36
2023-04-02T15:55:03.880Z,58.98
2023-04-02T16:00:28.358Z,59.61
2023-04-02T16:05:40.162Z,60.53
2023-04-02T16:10:45.952Z,60.19
2023-04-02T16:15:53.800Z,58.35
2023-04-02T16:21:02.146Z,60.49
2023-04-02T16:26:19.292Z,60.40
2023-04-02T16:31:27.354Z,60.57
2023-04-02T16:36:48.246Z,61.24
2023-04-02T16:42:00.974Z,60.57
2023-04-02T16:47:15.962Z,61.92
2023-04-02T16:52:28.464Z,62.24
2023-04-02T16:57:37.818Z,60.80
2023-04-02T17:02:50.476Z,62.04
2023-04-02T17:08:01.790Z,61.89
2023-04-02T17:13:16.991Z,61.01
2023-04-02T17:18:21.672Z,61.37
2023-04-02T17:23:25.984Z,62.48
2023-04-02T17:28:37.013Z,62.49
2023-04-02T17:33:40.453Z,61.14
2023-04-02T17:38:52.351Z,62.22
2023-04-02T17:44:01.323Z,61.23
2023-04-02T17:49:12.699Z,62.49
2023-04-02T17:54:27.996Z,61.48
2023-04-02T17:59:44.938Z,62.10
2023-04-02T18:04:53.595Z,62.32
2023-04-02T18:10:03.913Z,62.35
2023-04-02T18:15:28.753Z,62.20
2023-04-02T18:20:34.652Z,61.54
2023-04-02T18:25:46.076Z,61.97
2023-04-02T18:30:56.423Z,61.42
2023-04-02T18:36:01.481Z,61.39
2023-04-02T18:41:15.877Z,60.55
2023-04-02T18:46:29.579Z,62.50
2023-04-02T18:51:36.915Z,62.06
2023-04-02T18:56:41.396Z,62.12
2023-04-02T19:01:50.213Z,61.71
2023-04-02T19:06:57.803Z,62.00
2023-04-02T19:12:01.537Z,62.05
2023-04-02T19:17:11.397Z,61.94
2023-04-02T19:22:18.225Z,62.13
2023-04-02T19:27:25.854Z,63.02
2023-04-02T19:32:35.023Z,62.74
2023-04-02T19:37:41.400Z,62.52
2023-04-02T19:42:47.142Z,62.89
2023-04-02T19:47:52.119Z,62.23
2023-04-02T19:52:55.591Z,61.74
2023-04-02T19:58:12.662Z,61.49
2023-04-02T20:03:24.103Z,61.43
2023-04-02T20:08:27.965Z,62.94
2023-04-02T20:13:31.475Z,63.05
2023-04-02T20:18:37.307Z,62.39
2023-04-02T20:23:41.011Z,61.84
2023-04-02T20:28:44.431Z,62.79
2023-04-02T20:33:49.370Z,63.21
2023-04-02T20:38:53.301Z,62.55
2023-04-02T20:43:56.834Z,61.65
2023-04-02T20:49:02.296Z,62.33
2023-04-02T20:54:06.092Z,61.46
2023-04-02T20:59:09.564Z,62.91
2023-04-02T21:04:14.856Z,61.68
2023-04-02T21:09:21.484Z,62.79
2023-04-02T21:14:25.338Z,62.94
2023-04-02T21:19:30.415Z,62.93
2023-04-02T21:24:33.968Z,63.21
2023-04-02T21:29:37.462Z,61.97
2023-04-02T21:34:42.347Z,62.13
2023-04-02T21:39:45.800Z,63.18
2023-04-02T21:44:49.252Z,62.96
2023-04-02T21:49:54.188Z,63.07
2023-04-02T21:54:57.613Z,61.48
2023-04-02T22:00:01.091Z,62.64
2023-04-02T22:05:06.725Z,62.66
2023-04-02T22:10:10.582Z,61.32
2023-04-02T22:15:14.037Z,62.91
2023-04-02T22:20:18.927Z,61.74
2023-04-02T22:25:22.424Z,61.42
2023-04-02T22:30:30.139Z,62.65
2023-04-02T22:35:35.057Z,61.50
2023-04-02T22:40:38.646Z,61.88
2023-04-02T22:45:42.242Z,61.52
2023-04-02T22:50:50.895Z,62.68
2023-04-02T22:55:54.589Z,62.46
2023-04-02T23:00:58.086Z,62.67
2023-04-02T23:06:04.462Z,62.26
2023-04-02T23:11:10.390Z,61.38
2023-04-02T23:16:14.953Z,62.40
2023-04-02T23:21:21.754Z,61.11
2023-04-02T23:26:29.582Z,62.02
2023-04-02T23:31:33.635Z,61.65
2023-04-02T23:36:38.618Z,61.05
2023-04-02T23:41:44.270Z,61.03
2023-04-02T23:46:47.805Z,62.10
2023-04-02T23:51:53.231Z,61.50
2023-04-02T23:56:56.790Z,60.58
